createdAt,value
2023-03-07T00:00:02.167Z,17.30
2023-03-07T00:05:07.004Z,19.50
2023-03-07T00:10:11.235Z,18.50
2023-03-07T00:20:18.369Z,22.70
2023-03-07T00:25:21.884Z,16.80
2023-03-07T00:30:25.397Z,16.30
2023-03-07T00:35:28.911Z,11.50
2023-03-07T00:40:32.545Z,13.60
2023-03-07T00:45:36.190Z,16.10
2023-03-07T00:50:39.973Z,12.90
2023-03-07T00:55:53.626Z,16.50
2023-03-07T01:00:57.898Z,13.80
2023-03-07T01:06:10.509Z,14.80
2023-03-07T01:11:14.842Z,14.40
2023-03-07T01:16:21.334Z,15.60
2023-03-07T01:21:28.208Z,14.30
2023-03-07T01:26:33.049Z,16.30
2023-03-07T01:31:36.604Z,13.20
2023-03-07T01:36:40.207Z,15.40
2023-03-07T01:46:49.467Z,14.10
2023-03-07T01:52:00.762Z,13.00
2023-03-07T01:57:05.316Z,13.20
2023-03-07T02:02:13.302Z,14.30
2023-03-07T02:07:21.660Z,15.10
2023-03-07T02:12:25.164Z,18.00
2023-03-07T02:17:28.883Z,13.90
2023-03-07T02:22:32.605Z,13.10
2023-03-07T02:27:37.743Z,14.20
2023-03-07T02:32:41.236Z,12.00
2023-03-07T02:37:47.765Z,12.70
2023-03-07T02:42:54.938Z,14.30
2023-03-07T02:47:58.380Z,24.90
2023-03-07T02:53:02.108Z,23.90
2023-03-07T02:58:05.509Z,15.80
2023-03-07T03:03:09.234Z,13.00
2023-03-07T03:08:13.672Z,10.80
2023-03-07T03:18:20.396Z,15.60
2023-03-07T03:23:26.985Z,14.10
2023-03-07T03:28:30.399Z,13.30
2023-03-07T03:33:34.637Z,12.00
2023-03-07T03:38:38.349Z,12.60
2023-03-07T03:43:42.174Z,14.00
2023-03-07T03:48:52.257Z,13.50
2023-03-07T03:53:57.853Z,13.60
2023-03-07T03:59:01.326Z,12.60
2023-03-07T04:04:05.319Z,13.40
2023-03-07T04:09:09.801Z,13.90
2023-03-07T04:14:13.518Z,14.80
2023-03-07T04:19:16.913Z,14.80
2023-03-07T04:24:20.531Z,12.50
2023-03-07T04:29:24.162Z,13.30
2023-03-07T04:34:27.769Z,13.90
2023-03-07T04:39:31.284Z,11.90
2023-03-07T04:44:34.900Z,12.40
2023-03-07T04:49:38.518Z,10.80
2023-03-07T04:54:42.035Z,13.00
2023-03-07T04:59:45.755Z,13.10
2023-03-07T05:04:49.269Z,13.50
2023-03-07T05:09:52.804Z,13.90
2023-03-07T05:14:56.303Z,12.30
2023-03-07T05:19:59.816Z,10.80
2023-03-07T05:25:03.440Z,13.00
2023-03-07T05:30:07.610Z,13.90
2023-03-07T05:40:15.916Z,14.30
2023-03-07T05:45:21.383Z,12.90
2023-03-07T05:50:25.212Z,14.70
2023-03-07T05:55:28.653Z,14.80
2023-03-07T06:00:32.142Z,13.00
2023-03-07T06:05:35.760Z,11.60
2023-03-07T06:10:40.502Z,11.20
2023-03-07T06:15:44.773Z,11.60
2023-03-07T06:25:59.751Z,11.80
2023-03-07T06:31:11.831Z,12.80
2023-03-07T06:36:17.767Z,13.30
2023-03-07T06:41:21.257Z,13.50
2023-03-07T06:46:24.875Z,13.20
2023-03-07T06:51:28.492Z,14.40
2023-03-07T06:56:31.859Z,13.80
2023-03-07T07:01:36.036Z,12.70
2023-03-07T07:06:39.449Z,11.90
2023-03-07T07:11:43.075Z,12.30
2023-03-07T07:16:46.540Z,13.00
2023-03-07T07:21:50.198Z,11.20
2023-03-07T07:26:54.177Z,9.70
2023-03-07T07:31:57.890Z,15.70
2023-03-07T07:37:01.563Z,11.50
2023-03-07T07:42:05.415Z,9.40
2023-03-07T07:47:08.922Z,8.70
2023-03-07T07:52:12.372Z,9.90
2023-03-07T07:57:15.941Z,9.40
2023-03-07T08:02:19.494Z,11.00
2023-03-07T08:07:23.395Z,10.30
2023-03-07T08:12:27.973Z,10.70
2023-03-07T08:17:31.846Z,10.80
2023-03-07T08:22:36.733Z,9.60
2023-03-07T08:27:40.209Z,9.50
2023-03-07T08:32:43.829Z,10.10
2023-03-07T08:37:49.338Z,11.10
2023-03-07T08:42:55.255Z,9.80
2023-03-07T08:47:59.188Z,16.70
2023-03-07T08:53:04.132Z,38.50
2023-03-07T08:58:07.957Z,15.60
2023-03-07T09:03:11.623Z,12.10
2023-03-07T09:08:15.209Z,9.60
2023-03-07T09:13:18.741Z,9.20
2023-03-07T09:18:23.192Z,7.00
2023-03-07T09:28:30.080Z,6.20
2023-03-07T09:33:33.997Z,5.90
2023-03-07T09:38:38.999Z,7.40
2023-03-07T09:43:54.750Z,5.90
2023-03-07T09:49:18.138Z,8.00
2023-03-07T09:54:47.351Z,7.20
2023-03-07T09:59:57.751Z,8.30
2023-03-07T10:05:10.770Z,8.20
2023-03-07T10:10:40.304Z,7.70
2023-03-07T10:15:48.043Z,7.60
2023-03-07T10:21:13.247Z,8.40
2023-03-07T10:26:26.270Z,7.90
2023-03-07T10:31:38.086Z,7.80
2023-03-07T10:37:03.361Z,8.10
2023-03-07T10:42:15.012Z,9.90
2023-03-07T10:47:22.441Z,9.10
2023-03-07T10:52:38.524Z,9.10
2023-03-07T10:57:41.935Z,8.80
2023-03-07T11:02:47.175Z,9.10
2023-03-07T11:07:50.601Z,10.70
2023-03-07T11:12:56.182Z,12.30
2023-03-07T11:17:59.885Z,12.40
2023-03-07T11:23:18.665Z,12.40
2023-03-07T11:28:30.886Z,11.60
2023-03-07T11:34:00.320Z,13.30
2023-03-07T11:39:24.710Z,13.20
2023-03-07T11:45:06.930Z,11.10
2023-03-07T11:50:22.954Z,14.40
2023-03-07T11:55:47.968Z,13.80
2023-03-07T12:01:00.143Z,13.10
2023-03-07T12:06:17.421Z,12.40
2023-03-07T12:11:26.879Z,13.70
2023-03-07T12:16:50.878Z,10.40
2023-03-07T12:22:12.931Z,9.20
2023-03-07T12:27:28.554Z,13.90
2023-03-07T12:32:36.676Z,14.40
2023-03-07T12:37:55.978Z,14.10
2023-03-07T12:43:30.685Z,15.60
2023-03-07T12:48:59.488Z,15.20
2023-03-07T12:54:23.703Z,15.60
2023-03-07T12:59:29.471Z,17.10
2023-03-07T13:04:35.717Z,16.30
2023-03-07T13:09:43.347Z,18.40
2023-03-07T13:14:57.839Z,15.60
2023-03-07T13:25:27.783Z,18.40
2023-03-07T13:30:33.303Z,19.00
2023-03-07T13:35:48.492Z,18.00
2023-03-07T13:40:56.557Z,19.40
2023-03-07T13:46:03.546Z,20.40
2023-03-07T13:51:10.861Z,18.90
2023-03-07T13:56:17.340Z,20.20
2023-03-07T14:01:22.167Z,21.40
2023-03-07T14:06:35.145Z,21.30
2023-03-07T14:12:09.873Z,19.90
2023-03-07T14:17:29.572Z,18.20
2023-03-07T14:22:52.881Z,18.80
2023-03-07T14:27:59.341Z,18.50
2023-03-07T14:33:03.278Z,18.50
2023-03-07T14:38:18.556Z,18.80
2023-03-07T14:43:52.382Z,17.40
2023-03-07T14:49:32.576Z,19.20
2023-03-07T14:54:38.113Z,18.40
2023-03-07T14:59:41.632Z,18.00
2023-03-07T15:04:45.206Z,19.40
2023-03-07T15:14:57.926Z,16.90
2023-03-07T15:20:10.031Z,16.70
2023-03-07T15:25:25.371Z,16.70
2023-03-07T15:30:35.300Z,16.30
2023-03-07T15:35:39.024Z,17.00
2023-03-07T15:40:43.554Z,17.20
2023-03-07T15:51:06.841Z,15.30
2023-03-07T15:56:25.125Z,13.70
2023-03-07T16:01:28.927Z,14.40
2023-03-07T16:06:38.358Z,13.30
2023-03-07T16:11:43.920Z,14.60
2023-03-07T16:16:48.038Z,15.90
2023-03-07T16:21:51.617Z,12.70
2023-03-07T16:26:55.129Z,13.20
2023-03-07T16:32:01.585Z,11.50
2023-03-07T16:37:05.640Z,13.40
2023-03-07T16:42:24.513Z,12.40
2023-03-07T16:47:28.026Z,13.70
2023-03-07T16:52:31.493Z,13.80
2023-03-07T16:57:35.262Z,12.50
2023-03-07T17:02:38.810Z,21.50
2023-03-07T17:07:42.503Z,14.30
2023-03-07T17:12:46.938Z,13.80
2023-03-07T17:22:54.290Z,10.50
2023-03-07T17:28:08.853Z,12.00
2023-03-07T17:33:12.676Z,11.60
2023-03-07T17:38:16.295Z,10.20
2023-03-07T17:43:20.114Z,11.30
2023-03-07T17:48:23.507Z,9.30
2023-03-07T17:53:27.045Z,9.20
2023-03-07T17:58:30.353Z,8.90
2023-03-07T18:03:34.563Z,5.50
2023-03-07T18:08:39.234Z,6.90
2023-03-07T18:13:42.852Z,8.40
2023-03-07T18:18:58.129Z,7.60
2023-03-07T18:24:03.084Z,7.60
2023-03-07T18:29:06.611Z,8.20
2023-03-07T18:34:10.835Z,8.00
2023-03-07T18:39:16.145Z,8.20
2023-03-07T18:44:20.425Z,5.60
2023-03-07T18:49:23.833Z,3.10
2023-03-07T18:54:27.245Z,2.90
2023-03-07T18:59:30.658Z,3.10
2023-03-07T19:04:34.391Z,3.40
2023-03-07T19:09:38.008Z,2.70
2023-03-07T19:14:43.881Z,2.60
2023-03-07T19:19:48.619Z,1.60
2023-03-07T19:24:52.111Z,1.40
2023-03-07T19:29:55.751Z,1.00
2023-03-07T19:34:59.163Z,1.70
2023-03-07T19:40:02.647Z,5.20
2023-03-07T19:45:07.113Z,9.00
2023-03-07T19:55:14.879Z,2.80
2023-03-07T20:00:20.423Z,1.70
2023-03-07T20:05:23.980Z,2.40
2023-03-07T20:10:27.970Z,1.70
2023-03-07T20:15:32.477Z,2.10
2023-03-07T20:20:36.332Z,1.40
2023-03-07T20:25:39.948Z,1.40
2023-03-07T20:30:43.796Z,1.30
2023-03-07T20:35:47.310Z,1.00
2023-03-07T20:41:00.021Z,1.10
2023-03-07T20:46:12.983Z,1.30
2023-03-07T20:51:19.278Z,1.20
2023-03-07T20:56:23.888Z,2.80
2023-03-07T21:01:30.205Z,1.50
2023-03-07T21:06:38.782Z,1.70
2023-03-07T21:11:47.544Z,1.50
2023-03-07T21:16:50.964Z,1.30
2023-03-07T21:21:54.439Z,2.20
2023-03-07T21:26:58.630Z,2.30
2023-03-07T21:32:02.114Z,2.00
2023-03-07T21:37:05.622Z,1.80
2023-03-07T21:42:09.139Z,2.60
2023-03-07T21:47:13.374Z,2.70
2023-03-07T21:52:16.783Z,2.60
2023-03-07T21:57:20.380Z,3.10
2023-03-07T22:02:24.327Z,3.10
2023-03-07T22:07:27.839Z,2.90
2023-03-07T22:12:31.767Z,3.20
2023-03-07T22:17:35.226Z,2.60
2023-03-07T22:22:38.695Z,2.80
2023-03-07T22:27:43.846Z,3.10
2023-03-07T22:32:47.383Z,3.10
2023-03-07T22:37:50.979Z,3.60
2023-03-07T22:42:54.600Z,4.10
2023-03-07T22:47:58.120Z,3.60
2023-03-07T22:53:01.629Z,3.50
2023-03-07T22:58:05.147Z,4.20
2023-03-07T23:03:08.996Z,3.80
2023-03-07T23:08:13.303Z,3.70
2023-03-07T23:18:20.752Z,3.30
2023-03-07T23:23:24.360Z,3.60
2023-03-07T23:28:28.183Z,4.20
2023-03-07T23:33:31.702Z,2.80
2023-03-07T23:38:35.111Z,4.20
2023-03-07T23:43:38.831Z,3.60
2023-03-07T23:48:42.244Z,3.90
2023-03-07T23:53:45.763Z,3.50
2023-03-07T23:58:51.017Z,3.70
